METAR Data
IDs: Format: Raw Decoded Include TAF

Data at: 0046 UTC 20 Jul 2019

METAR for:KEBS (Webster City Muni, IA, US)
Text:KEBS 200015Z AUTO 20010G15KT 10SM CLR 32/27 A2968 RMK AO2
Temperature: 32.0°C ( 90°F)
Dewpoint: 27.0°C ( 81°F) [RH = 75%]
Pressure (altimeter):29.68 inches Hg (1005.2 mb)
Winds:from the SSW (200 degrees) at 12 MPH (10 knots; 5.1 m/s) gusting to 17 MPH (15 knots; 7.7 m/s)
Visibility:10 or more sm (16+ km)
Ceiling:at least 12,000 feet AGL
Clouds:sky clear below 12,000 feet AGL
QC Flag:automated observation with no human augmentation